Chernivtsi, Ukraine
Current Conditions -  °F | °C
As of 10:30 AM on Saturday 25 Oct 2014 (Local Time) from UKLN Reporting Station
Broken Clouds Broken Clouds  
Wind Chill: 20°   Ceiling: 1000
Heat Index: 28°   Visibility: 6mi
Dew Point: 25°   Wind: 9mph
Humidity: 86%   Direction: 110°ESE
Pressure: 30.48"   Gusts: NA
Location:  48.3°N, 25.93°E
Report Text: UKLN 250730Z 11004MPS 9999 BKN010 M02/M04 Q1032 15990226 NOSIG
Loading
Personal Weather Stations






























Interactive Weather Map
Tropical Storm Tracking
New forecast layout! Learn more

10-Day Weather Forecast

Advertisements
Track Severe Weather on mobile